Time;durP1;ratioP1;P1;durP2;ratioP2;P2;SDS_P1;SDS_P2;PMS_P1;PMS_P2;Temp;Humidity;BMP_temperature;BMP_pressure;BME280_temperature;BME280_humidity;BME280_pressure;Samples;Min_cycle;Max_cycle;Signal;HPM_P1;HPM_P2
2021/03/08 00:01:24;;;;;;;6.30;4.18;;;-0.50;99.90;;;;;;10379078;28;20049;-66
2021/03/08 00:06:25;;;;;;;13.80;7.70;;;-0.50;99.90;;;;;;10340272;28;20144;-66
2021/03/08 00:11:27;;;;;;;14.70;7.15;;;-0.60;99.90;;;;;;10367829;28;20054;-66
2021/03/08 00:16:28;;;;;;;11.13;5.55;;;-0.70;99.90;;;;;;10353753;28;20100;-66
2021/03/08 00:21:30;;;;;;;12.00;4.70;;;-0.70;99.90;;;;;;10356812;28;21199;-66
2021/03/08 00:26:31;;;;;;;9.07;4.28;;;-0.80;99.90;;;;;;10360259;28;20069;-66
2021/03/08 00:31:48;;;;;;;9.55;4.60;;;-0.90;99.90;;;;;;10355306;28;20053;-66
2021/03/08 00:36:49;;;;;;;9.43;4.55;;;-0.90;99.90;;;;;;10357915;28;20053;-66
2021/03/08 00:41:51;;;;;;;8.35;4.70;;;-0.90;99.90;;;;;;10364473;28;20046;-64
2021/03/08 00:46:53;;;;;;;9.25;4.88;;;-1.00;99.90;;;;;;10317949;28;20494;-64
2021/03/08 00:51:54;;;;;;;10.18;5.50;;;-1.10;99.90;;;;;;10343299;28;20060;-66
2021/03/08 00:56:55;;;;;;;6.85;4.38;;;-1.10;99.90;;;;;;10358578;28;20053;-66
2021/03/08 01:02:08;;;;;;;10.02;4.93;;;-1.10;99.90;;;;;;10339653;28;20500;-66
2021/03/08 01:07:10;;;;;;;10.13;4.35;;;-1.10;99.90;;;;;;10351702;28;20042;-66
2021/03/08 01:12:12;;;;;;;10.70;4.53;;;-1.10;99.90;;;;;;10342562;28;20573;-66
2021/03/08 01:17:14;;;;;;;12.80;6.70;;;-1.20;99.90;;;;;;10360743;28;20506;-66
2021/03/08 01:22:15;;;;;;;11.10;5.72;;;-1.20;99.90;;;;;;10361841;28;20144;-66
2021/03/08 01:27:17;;;;;;;9.10;5.60;;;-1.30;99.90;;;;;;10357514;28;20057;-66
2021/03/08 01:32:27;;;;;;;9.68;5.30;;;-1.30;99.90;;;;;;10364206;28;20049;-66
2021/03/08 01:37:29;;;;;;;13.70;5.95;;;-1.40;99.90;;;;;;10358907;28;20053;-66
2021/03/08 01:42:30;;;;;;;10.45;5.57;;;-1.40;99.90;;;;;;10357084;28;20437;-66
2021/03/08 01:47:34;;;;;;;9.20;5.75;;;-1.40;99.90;;;;;;10359793;28;20052;-66
2021/03/08 01:52:37;;;;;;;11.00;6.40;;;-1.50;99.90;;;;;;10355267;28;20192;-66
2021/03/08 01:57:39;;;;;;;11.23;6.03;;;-1.50;99.90;;;;;;10362590;28;20049;-66
2021/03/08 02:02:55;;;;;;;11.77;6.03;;;-1.50;99.90;;;;;;10345200;28;20244;-66
2021/03/08 02:07:57;;;;;;;11.55;6.50;;;-1.60;99.90;;;;;;10356037;28;20087;-66
2021/03/08 02:13:26;;;;;;;13.90;7.05;;;-1.60;99.90;;;;;;10361193;28;20081;-66
2021/03/08 02:18:33;;;;;;;;;;;-1.70;99.90;;;;;;10308646;28;20597;-66
2021/03/08 02:24:11;;;;;;;13.90;5.38;;;-1.70;99.90;;;;;;10340881;28;19932;-66
2021/03/08 02:29:32;;;;;;;15.32;5.72;;;-1.70;99.90;;;;;;10302486;28;20136;-66
2021/03/08 02:34:39;;;;;;;10.05;6.15;;;-1.80;99.90;;;;;;10260825;28;20058;-66
2021/03/08 02:39:45;;;;;;;14.23;5.60;;;-1.80;99.90;;;;;;10355885;28;20077;-66
2021/03/08 02:44:49;;;;;;;15.05;6.85;;;-1.90;99.90;;;;;;10354104;28;20081;-66
2021/03/08 02:49:54;;;;;;;11.65;6.70;;;-1.80;99.90;;;;;;10358284;28;20060;-66
2021/03/08 02:54:59;;;;;;;11.75;6.78;;;-1.90;99.90;;;;;;10357941;28;20490;-66
2021/03/08 03:00:04;;;;;;;17.70;6.85;;;-1.90;99.90;;;;;;10363766;28;20058;-66
2021/03/08 03:05:12;;;;;;;13.35;6.20;;;-1.90;99.90;;;;;;10331358;28;20056;-66
2021/03/08 03:10:15;;;;;;;11.30;5.45;;;-1.90;99.90;;;;;;10362044;28;20049;-66
2021/03/08 03:15:16;;;;;;;9.25;5.47;;;-2.00;99.90;;;;;;10419184;28;20145;-66
2021/03/08 03:20:19;;;;;;;13.38;6.13;;;-2.00;99.90;;;;;;10418327;28;20420;-66
2021/03/08 03:25:24;;;;;;;12.90;6.10;;;-2.00;99.90;;;;;;10420764;28;20056;-66
2021/03/08 03:30:29;;;;;;;17.40;6.60;;;-2.00;99.90;;;;;;10422219;28;20076;-66
2021/03/08 03:35:31;;;;;;;14.95;6.28;;;-2.00;99.90;;;;;;10424438;28;20415;-66
2021/03/08 03:40:32;;;;;;;11.00;6.70;;;-2.10;99.90;;;;;;10400043;28;20060;-66
2021/03/08 03:45:34;;;;;;;11.70;6.07;;;-2.20;99.90;;;;;;10423974;28;20490;-66
2021/03/08 03:50:36;;;;;;;12.05;6.15;;;-2.20;99.90;;;;;;10423153;28;20061;-66
2021/03/08 03:55:37;;;;;;;10.93;6.13;;;-2.20;99.90;;;;;;10409618;28;20068;-66
2021/03/08 04:01:03;;;;;;;15.07;7.00;;;-2.30;99.90;;;;;;10423636;28;20052;-66
2021/03/08 04:06:06;;;;;;;13.32;6.00;;;-2.30;99.90;;;;;;10369848;28;20045;-66
2021/03/08 04:11:07;;;;;;;14.48;7.55;;;-2.20;99.90;;;;;;10419866;28;20247;-66
2021/03/08 04:16:10;;;;;;;17.70;6.75;;;-2.20;99.90;;;;;;10420750;28;20511;-66
2021/03/08 04:21:13;;;;;;;11.35;5.93;;;-2.20;99.90;;;;;;10419643;28;20057;-66
2021/03/08 04:26:16;;;;;;;14.55;6.35;;;-2.20;99.90;;;;;;10421446;28;20056;-66
2021/03/08 04:31:18;;;;;;;11.98;6.28;;;-2.20;99.90;;;;;;10419729;28;20047;-67
2021/03/08 04:36:21;;;;;;;15.70;7.47;;;-2.30;99.90;;;;;;10418554;28;20407;-66
2021/03/08 04:41:26;;;;;;;15.25;6.88;;;-2.30;99.90;;;;;;10421938;28;20711;-66
2021/03/08 04:46:29;;;;;;;12.70;6.47;;;-2.30;99.90;;;;;;10414683;28;20057;-66
2021/03/08 04:51:32;;;;;;;13.10;6.28;;;-2.40;99.90;;;;;;10417456;28;20041;-66
2021/03/08 04:56:34;;;;;;;14.25;7.15;;;-2.40;99.90;;;;;;10414362;28;20044;-66
2021/03/08 05:01:35;;;;;;;16.42;8.38;;;-2.40;99.90;;;;;;10419191;28;20142;-66
2021/03/08 05:06:44;;;;;;;27.10;15.32;;;-2.40;99.90;;;;;;10411613;28;21207;-64
2021/03/08 05:11:47;;;;;;;22.48;11.20;;;-2.40;99.90;;;;;;10395835;28;20499;-66
2021/03/08 05:16:49;;;;;;;17.27;7.65;;;-2.40;99.90;;;;;;10366411;28;20091;-66
2021/03/08 05:21:52;;;;;;;18.48;10.27;;;-2.30;99.90;;;;;;10370238;28;20136;-66
2021/03/08 05:26:53;;;;;;;16.48;9.10;;;-2.40;99.90;;;;;;10373747;28;20053;-66
2021/03/08 05:31:58;;;;;;;21.48;8.70;;;-2.40;99.90;;;;;;10370666;28;20575;-66
2021/03/08 05:36:59;;;;;;;17.13;8.57;;;-2.40;99.90;;;;;;10368934;28;20048;-66
2021/03/08 05:42:10;;;;;;;12.02;7.28;;;-2.30;99.90;;;;;;10368373;28;20139;-66
2021/03/08 05:47:26;;;;;;;14.43;7.55;;;-2.30;99.90;;;;;;10370372;28;20088;-66
2021/03/08 05:53:21;;;;;;;14.57;7.28;;;-2.30;99.90;;;;;;10323179;28;20049;-66
2021/03/08 05:58:54;;;;;;;14.15;6.50;;;-2.40;99.90;;;;;;10295087;28;20048;-64
2021/03/08 06:04:32;;;;;;;14.80;7.47;;;-2.40;99.90;;;;;;10351612;28;20134;-64
2021/03/08 06:10:06;;;;;;;14.13;6.80;;;-2.20;99.90;;;;;;10289321;28;20049;-64
2021/03/08 06:15:14;;;;;;;12.80;6.57;;;-2.20;99.90;;;;;;10294374;28;20053;-64
2021/03/08 06:20:17;;;;;;;;;;;-2.20;99.90;;;;;;10371974;28;20103;-64
2021/03/08 06:25:20;;;;;;;13.23;6.47;;;-2.20;99.90;;;;;;10367217;28;20372;-64
2021/03/08 06:30:24;;;;;;;12.68;6.07;;;-2.10;99.90;;;;;;10373449;28;20071;-64
2021/03/08 06:35:25;;;;;;;14.90;7.57;;;-2.00;99.90;;;;;;10374241;28;20045;-62
2021/03/08 06:40:26;;;;;;;14.32;7.15;;;-2.00;99.90;;;;;;10376034;28;20135;-62
2021/03/08 06:45:27;;;;;;;16.52;7.75;;;-1.90;99.90;;;;;;10370506;28;20053;-62
2021/03/08 06:50:29;;;;;;;15.95;8.25;;;-1.70;99.90;;;;;;10374355;28;20050;-63
2021/03/08 06:55:31;;;;;;;18.20;8.07;;;-1.50;99.90;;;;;;10373354;28;20053;-64
2021/03/08 07:00:32;;;;;;;15.48;8.95;;;-1.30;99.90;;;;;;10377031;28;20057;-64
2021/03/08 07:05:33;;;;;;;14.50;8.13;;;-1.10;99.90;;;;;;10379954;28;20100;-64
2021/03/08 07:10:40;;;;;;;17.48;7.85;;;-0.80;99.90;;;;;;10372636;28;20033;-64
2021/03/08 07:16:01;;;;;;;19.77;9.38;;;-0.60;99.90;;;;;;10408408;28;20126;-64
2021/03/08 07:21:12;;;;;;;21.85;8.70;;;-0.30;99.90;;;;;;10310597;28;20054;-64
2021/03/08 07:26:18;;;;;;;15.40;7.97;;;0.00;99.90;;;;;;10398947;28;20079;-64
2021/03/08 07:31:43;;;;;;;19.23;8.82;;;0.20;99.90;;;;;;10402594;28;20060;-64
2021/03/08 07:37:01;;;;;;;16.63;8.85;;;0.50;99.90;;;;;;10405150;28;20110;-64
2021/03/08 07:42:09;;;;;;;19.50;8.93;;;0.70;99.90;;;;;;10349680;28;20056;-64
2021/03/08 07:47:18;;;;;;;15.23;9.23;;;0.80;99.90;;;;;;10405544;28;20084;-64
2021/03/08 07:52:20;;;;;;;24.15;9.77;;;0.90;99.90;;;;;;10403165;28;20049;-64
2021/03/08 07:57:23;;;;;;;15.05;9.00;;;1.20;99.90;;;;;;10389126;28;20045;-64
2021/03/08 08:02:25;;;;;;;13.82;8.60;;;1.40;99.90;;;;;;10398487;28;20114;-65
2021/03/08 08:07:44;;;;;;;19.80;9.83;;;1.50;99.90;;;;;;10404658;28;20086;-64
2021/03/08 08:12:48;;;;;;;14.18;8.40;;;1.30;99.90;;;;;;10407316;28;20061;-64
2021/03/08 08:17:53;;;;;;;17.40;10.13;;;1.70;99.90;;;;;;10398219;28;20085;-64
2021/03/08 08:23:00;;;;;;;12.27;8.38;;;2.00;99.90;;;;;;10399633;28;20356;-64
2021/03/08 08:28:02;;;;;;;13.98;9.18;;;2.20;99.90;;;;;;10401417;28;20070;-65
2021/03/08 08:33:03;;;;;;;13.27;8.32;;;2.30;99.50;;;;;;10399152;28;20427;-65
2021/03/08 08:38:15;;;;;;;15.65;8.35;;;2.50;98.30;;;;;;10400567;28;20514;-64
2021/03/08 08:43:16;;;;;;;13.93;8.00;;;2.30;97.00;;;;;;10400442;28;20058;-64
2021/03/08 08:48:22;;;;;;;14.68;7.82;;;2.50;97.60;;;;;;10395841;28;20065;-64
2021/03/08 08:53:44;;;;;;;14.55;8.20;;;2.80;97.20;;;;;;10392771;28;20053;-64
2021/03/08 08:58:48;;;;;;;16.10;8.45;;;3.00;95.50;;;;;;10383104;28;20475;-64
2021/03/08 09:04:10;;;;;;;16.15;8.13;;;3.10;94.30;;;;;;10405356;28;20155;-64
2021/03/08 09:09:43;;;;;;;10.65;6.60;;;3.10;93.00;;;;;;10410893;28;20135;-64
2021/03/08 09:15:22;;;;;;;10.30;6.57;;;2.90;92.40;;;;;;10346919;28;20392;-63
2021/03/08 09:20:27;;;;;;;10.32;7.15;;;3.30;92.10;;;;;;10399384;28;20487;-64
2021/03/08 09:25:29;;;;;;;14.48;8.20;;;3.60;92.20;;;;;;10406022;28;20052;-64
2021/03/08 09:30:37;;;;;;;12.80;8.30;;;3.80;91.40;;;;;;10394615;28;20150;-64
2021/03/08 09:35:47;;;;;;;12.27;7.95;;;3.90;90.40;;;;;;10408941;28;20057;-64
2021/03/08 09:41:00;;;;;;;21.10;10.05;;;4.10;91.00;;;;;;10407371;28;20111;-64
2021/03/08 09:46:10;;;;;;;10.90;8.18;;;4.20;91.20;;;;;;10402105;28;20048;-64
2021/03/08 09:51:12;;;;;;;16.05;9.40;;;4.20;90.70;;;;;;10393078;28;20404;-64
2021/03/08 09:56:19;;;;;;;13.60;9.18;;;4.40;90.10;;;;;;10402381;28;20115;-64
2021/03/08 10:01:22;;;;;;;17.00;9.38;;;4.50;90.10;;;;;;10403236;28;20146;-64
2021/03/08 10:06:34;;;;;;;15.70;9.20;;;4.50;89.30;;;;;;10402263;28;20068;-65
2021/03/08 10:12:02;;;;;;;14.35;8.30;;;4.60;90.40;;;;;;10381005;28;20403;-65
2021/03/08 10:17:13;;;;;;;19.88;11.20;;;4.60;90.30;;;;;;10344749;28;20081;-64
2021/03/08 10:22:31;;;;;;;13.02;9.13;;;4.60;90.20;;;;;;10297363;28;20097;-65
2021/03/08 10:27:33;;;;;;;15.23;9.85;;;4.70;89.90;;;;;;10256465;28;20060;-64
2021/03/08 10:32:37;;;;;;;14.85;9.50;;;4.70;90.70;;;;;;10349367;28;20042;-65
2021/03/08 10:37:40;;;;;;;16.63;9.85;;;4.90;90.40;;;;;;10364021;28;20049;-64
2021/03/08 10:42:42;;;;;;;15.13;8.93;;;5.10;90.00;;;;;;10364629;28;20057;-64
2021/03/08 10:47:43;;;;;;;19.08;9.73;;;5.30;88.00;;;;;;10361761;28;20442;-64
2021/03/08 10:53:03;;;;;;;15.63;9.82;;;5.30;87.00;;;;;;10359017;28;20484;-64
2021/03/08 10:58:04;;;;;;;16.88;9.48;;;4.90;88.70;;;;;;10285543;28;20100;-64
2021/03/08 11:03:06;;;;;;;20.13;12.18;;;5.50;88.20;;;;;;10312726;28;20049;-64
2021/03/08 11:08:13;;;;;;;20.75;11.85;;;5.80;86.80;;;;;;10300713;28;22424;-64
2021/03/08 11:13:15;;;;;;;16.25;10.38;;;5.90;84.60;;;;;;10343836;28;20207;-64
2021/03/08 11:18:24;;;;;;;19.08;10.13;;;6.20;84.80;;;;;;10314936;28;20046;-64
2021/03/08 11:23:25;;;;;;;25.65;10.55;;;6.40;84.10;;;;;;10362940;28;20135;-64
2021/03/08 11:28:40;;;;;;;17.88;10.02;;;6.50;83.20;;;;;;10360381;28;20057;-64
2021/03/08 11:33:46;;;;;;;25.73;10.88;;;6.30;82.20;;;;;;10361254;28;20247;-64
2021/03/08 11:38:50;;;;;;;14.07;9.43;;;6.70;83.70;;;;;;10364209;28;20065;-65
2021/03/08 11:43:53;;;;;;;18.80;9.30;;;6.90;82.90;;;;;;10363325;28;20389;-63
2021/03/08 11:49:05;;;;;;;14.32;9.05;;;7.00;83.60;;;;;;10371628;28;20056;-65
2021/03/08 11:54:07;;;;;;;18.17;10.07;;;7.30;81.10;;;;;;10365087;28;20053;-66
2021/03/08 11:59:09;;;;;;;18.70;9.40;;;7.30;80.80;;;;;;10369029;28;20111;-66
2021/03/08 12:04:10;;;;;;;17.60;9.57;;;7.00;78.70;;;;;;10368781;28;20064;-66
2021/03/08 12:09:11;;;;;;;21.23;10.52;;;7.20;80.60;;;;;;10364688;28;20062;-66
2021/03/08 12:14:12;;;;;;;21.55;9.95;;;7.70;78.90;;;;;;10331083;28;20067;-67
2021/03/08 12:19:14;;;;;;;20.10;9.38;;;7.90;77.20;;;;;;10352692;28;20436;-65
2021/03/08 12:24:15;;;;;;;19.67;9.50;;;7.60;77.30;;;;;;10354814;28;20144;-65
2021/03/08 12:29:17;;;;;;;17.27;9.32;;;8.00;77.10;;;;;;10354284;28;20119;-65
2021/03/08 12:34:18;;;;;;;16.42;8.32;;;7.60;75.10;;;;;;10349500;28;20468;-65
2021/03/08 12:39:19;;;;;;;15.70;9.32;;;7.60;77.80;;;;;;10352949;28;20057;-65
2021/03/08 12:44:21;;;;;;;19.17;9.63;;;7.80;77.80;;;;;;10362471;28;20057;-65
2021/03/08 12:49:22;;;;;;;28.42;10.95;;;7.90;76.90;;;;;;10341016;28;20120;-65
2021/03/08 12:54:23;;;;;;;20.70;10.13;;;8.10;77.00;;;;;;10356572;28;20140;-65
2021/03/08 12:59:26;;;;;;;17.40;10.27;;;8.20;76.30;;;;;;10355315;28;20431;-65
2021/03/08 13:04:27;;;;;;;18.15;10.05;;;8.10;76.00;;;;;;10355206;28;20049;-63
2021/03/08 13:09:28;;;;;;;20.23;10.18;;;8.10;76.50;;;;;;10357146;28;20500;-64
2021/03/08 13:14:30;;;;;;;14.38;8.93;;;8.20;76.20;;;;;;10362439;28;20053;-63
2021/03/08 13:19:34;;;;;;;20.88;9.23;;;8.40;76.20;;;;;;10347447;28;20523;-64
2021/03/08 13:24:35;;;;;;;32.70;9.45;;;8.50;76.10;;;;;;10303954;28;20058;-64
2021/03/08 13:29:40;;;;;;;27.42;8.65;;;8.80;73.50;;;;;;10267674;28;20593;-64
2021/03/08 13:34:52;;;;;;;16.35;8.20;;;8.90;72.10;;;;;;10307973;28;20053;-65
2021/03/08 13:39:56;;;;;;;15.63;9.10;;;8.70;72.50;;;;;;10332843;28;20064;-64
2021/03/08 13:44:58;;;;;;;14.55;9.48;;;8.90;73.20;;;;;;10313171;28;20160;-64
2021/03/08 13:50:03;;;;;;;17.83;8.73;;;9.00;73.40;;;;;;10319626;28;20046;-65
2021/03/08 13:55:06;;;;;;;17.35;8.95;;;9.00;73.50;;;;;;10353092;28;20053;-65
2021/03/08 14:00:08;;;;;;;17.00;9.50;;;9.00;73.90;;;;;;10356766;28;20365;-63
2021/03/08 14:05:10;;;;;;;17.00;7.90;;;9.00;74.40;;;;;;10357844;28;20108;-64
2021/03/08 14:10:11;;;;;;;23.35;9.52;;;9.00;73.20;;;;;;10361635;28;20058;-63
2021/03/08 14:15:13;;;;;;;19.45;9.57;;;9.10;73.40;;;;;;10354088;28;20046;-63
2021/03/08 14:20:15;;;;;;;13.95;7.57;;;9.20;74.00;;;;;;10359997;28;20874;-64
2021/03/08 14:25:16;;;;;;;17.15;7.63;;;9.20;73.90;;;;;;10352581;28;20434;-63
2021/03/08 14:30:18;;;;;;;15.35;6.50;;;9.50;73.80;;;;;;10346054;28;20091;-63
2021/03/08 14:35:20;;;;;;;17.73;7.28;;;9.40;72.80;;;;;;10351882;28;20443;-63
2021/03/08 14:40:27;;;;;;;11.80;5.13;;;9.40;72.20;;;;;;10353270;28;20057;-63
2021/03/08 14:58:25;;;;;;;13.90;6.25;;;8.90;74.90;;;;;;10538555;23;20055;-92
2021/03/08 15:03:27;;;;;;;13.38;5.82;;;8.90;74.30;;;;;;10512074;28;20753;-92
2021/03/08 15:08:30;;;;;;;11.43;5.03;;;8.80;75.30;;;;;;10485033;28;20072;-91
2021/03/08 15:13:31;;;;;;;13.45;6.43;;;8.60;75.10;;;;;;10477071;28;20058;-92
2021/03/08 15:18:33;;;;;;;11.90;5.72;;;8.60;75.80;;;;;;10511584;28;20039;-92
2021/03/08 15:23:41;;;;;;;11.00;4.88;;;8.60;76.50;;;;;;10502668;28;20052;-91
2021/03/08 15:28:44;;;;;;;17.83;6.95;;;8.50;76.40;;;;;;10482557;28;20516;-92
2021/03/08 15:33:47;;;;;;;10.02;5.20;;;8.30;77.10;;;;;;10482490;28;20056;-91
2021/03/08 15:38:49;;;;;;;11.48;5.15;;;8.30;77.30;;;;;;10480319;28;20165;-91
2021/03/08 15:43:51;;;;;;;15.30;5.10;;;8.30;77.20;;;;;;10501810;27;20048;-92
2021/03/08 15:48:53;;;;;;;18.38;6.57;;;8.20;77.70;;;;;;10490084;28;20052;-92
2021/03/08 15:53:54;;;;;;;11.88;6.53;;;8.20;77.60;;;;;;10420918;28;20048;-92
2021/03/08 15:59:03;;;;;;;13.02;5.80;;;8.00;78.00;;;;;;10480199;28;20051;-92
2021/03/08 16:04:06;;;;;;;15.98;7.00;;;7.90;78.30;;;;;;10448606;28;20063;-92
2021/03/08 16:09:26;;;;;;;12.30;6.70;;;7.90;78.70;;;;;;10475150;28;20048;-91
2021/03/08 16:14:27;;;;;;;16.15;6.72;;;7.80;80.00;;;;;;10483833;28;20102;-93
2021/03/08 16:19:29;;;;;;;12.57;7.38;;;7.70;80.10;;;;;;10483994;28;20045;-93
2021/03/08 16:24:41;;;;;;;17.27;6.57;;;7.60;80.60;;;;;;10492692;28;20056;-92
2021/03/08 16:29:43;;;;;;;12.38;6.53;;;7.60;81.50;;;;;;10475994;28;20055;-92
2021/03/08 16:34:44;;;;;;;13.20;6.85;;;7.40;82.60;;;;;;10482134;28;20067;-94
2021/03/08 16:40:08;;;;;;;12.40;5.68;;;7.30;83.00;;;;;;10390176;28;20079;-94
2021/03/08 16:45:14;;;;;;;15.38;6.97;;;7.10;82.30;;;;;;10418951;28;20057;-93
2021/03/08 16:50:31;;;;;;;19.88;8.35;;;7.00;83.60;;;;;;10406678;28;20500;-93
2021/03/08 16:55:41;;;;;;;15.95;7.93;;;6.80;85.00;;;;;;10396222;28;20148;-93
2021/03/08 17:00:50;;;;;;;13.52;6.45;;;6.60;85.50;;;;;;10392376;28;20078;-92
2021/03/08 17:05:54;;;;;;;13.70;7.43;;;6.70;86.30;;;;;;10410656;28;20086;-94
2021/03/08 17:11:07;;;;;;;12.13;6.45;;;6.60;85.20;;;;;;10383299;28;20107;-92
2021/03/08 17:16:20;;;;;;;20.50;9.68;;;6.50;85.60;;;;;;10384736;28;20440;-91
2021/03/08 17:26:54;;;;;;;15.90;7.30;;;6.20;86.90;;;;;;10416404;28;20057;-68
2021/03/08 17:31:55;;;;;;;15.07;7.45;;;6.30;87.80;;;;;;10422014;28;20041;-67
2021/03/08 17:36:57;;;;;;;17.02;7.68;;;6.20;88.00;;;;;;10422857;28;20045;-67
2021/03/08 17:41:58;;;;;;;16.02;7.93;;;6.20;88.60;;;;;;10422245;28;20127;-68
2021/03/08 17:46:59;;;;;;;12.75;7.22;;;6.10;88.80;;;;;;10418024;28;20053;-69
2021/03/08 17:52:01;;;;;;;12.73;6.60;;;6.10;89.40;;;;;;10402383;28;20051;-65
2021/03/08 17:57:02;;;;;;;15.48;7.13;;;6.00;88.50;;;;;;10411856;28;20513;-65
2021/03/08 18:02:24;;;;;;;18.33;8.27;;;5.90;88.70;;;;;;10415654;28;20410;-66
2021/03/08 18:07:25;;;;;;;18.00;7.50;;;5.80;89.30;;;;;;10408886;28;20144;-67
2021/03/08 18:12:27;;;;;;;19.05;8.02;;;5.80;89.50;;;;;;10410752;28;20512;-68
2021/03/08 18:17:28;;;;;;;15.35;7.57;;;5.70;91.20;;;;;;10407669;28;20532;-66
2021/03/08 18:22:33;;;;;;;16.20;7.95;;;5.70;91.80;;;;;;10410382;28;20049;-68
2021/03/08 18:27:35;;;;;;;20.50;8.80;;;5.60;92.20;;;;;;10409220;28;20045;-68
2021/03/08 18:32:38;;;;;;;19.08;9.25;;;5.50;92.10;;;;;;10413989;28;20148;-66
2021/03/08 18:37:40;;;;;;;19.85;8.18;;;5.50;92.10;;;;;;10405760;28;20112;-66
2021/03/08 18:42:47;;;;;;;16.77;8.43;;;5.40;92.00;;;;;;10393757;28;20529;-66
2021/03/08 18:47:48;;;;;;;16.65;8.05;;;5.40;93.10;;;;;;10409762;28;20064;-66
2021/03/08 18:52:50;;;;;;;39.38;14.88;;;5.30;93.90;;;;;;10411686;28;20053;-67
2021/03/08 18:57:51;;;;;;;22.65;11.65;;;5.30;94.20;;;;;;10418905;28;20446;-67
2021/03/08 19:02:52;;;;;;;23.15;10.75;;;5.20;94.20;;;;;;10421396;28;20069;-67
2021/03/08 19:07:54;;;;;;;20.05;8.50;;;5.20;94.30;;;;;;10421471;28;20064;-67
2021/03/08 19:12:55;;;;;;;17.10;9.20;;;5.10;94.10;;;;;;10421895;28;20056;-67
2021/03/08 19:17:56;;;;;;;15.30;8.38;;;5.10;94.90;;;;;;10421950;28;20065;-67
2021/03/08 19:22:58;;;;;;;24.88;10.50;;;5.00;95.40;;;;;;10413417;28;20156;-66
2021/03/08 19:27:59;;;;;;;19.08;8.95;;;5.00;95.40;;;;;;10414890;28;20057;-68
2021/03/08 19:33:00;;;;;;;18.65;8.00;;;5.00;95.40;;;;;;10416277;28;20142;-67
2021/03/08 19:38:01;;;;;;;16.00;7.45;;;5.00;94.80;;;;;;10413492;28;20045;-67
2021/03/08 19:43:03;;;;;;;16.92;8.13;;;4.90;95.20;;;;;;10419080;28;20056;-67
2021/03/08 19:48:04;;;;;;;18.70;9.48;;;4.90;94.80;;;;;;10418020;28;20387;-67
2021/03/08 19:53:07;;;;;;;18.77;8.63;;;4.90;95.30;;;;;;10416424;28;20055;-67
2021/03/08 19:58:08;;;;;;;19.08;9.20;;;4.90;95.90;;;;;;10415309;28;20052;-66
2021/03/08 20:03:14;;;;;;;21.40;10.25;;;4.90;96.20;;;;;;10416748;28;20572;-65
2021/03/08 20:08:15;;;;;;;19.27;8.57;;;4.90;96.80;;;;;;10420691;28;20056;-66
2021/03/08 20:13:19;;;;;;;17.40;8.85;;;4.80;96.90;;;;;;10415720;28;20045;-66
2021/03/08 20:18:21;;;;;;;21.58;9.57;;;4.80;97.50;;;;;;10414632;28;20375;-67
2021/03/08 20:23:22;;;;;;;23.83;11.32;;;4.70;97.80;;;;;;10416628;28;20383;-65
2021/03/08 20:28:23;;;;;;;19.65;9.70;;;4.70;98.10;;;;;;10418865;28;20052;-66
2021/03/08 20:33:24;;;;;;;20.15;9.55;;;4.70;98.60;;;;;;10408170;28;20438;-65
2021/03/08 20:38:26;;;;;;;22.63;10.57;;;4.70;99.00;;;;;;10415860;28;20041;-66
2021/03/08 20:43:27;;;;;;;27.15;12.60;;;4.60;99.40;;;;;;10416841;28;20102;-67
2021/03/08 20:48:28;;;;;;;24.25;10.90;;;4.60;99.90;;;;;;10420293;28;20110;-66
2021/03/08 20:53:30;;;;;;;20.50;9.80;;;4.60;99.90;;;;;;10420558;28;20049;-66
2021/03/08 20:58:31;;;;;;;24.55;12.57;;;4.60;99.90;;;;;;10416958;28;20072;-66
2021/03/08 21:03:32;;;;;;;24.70;12.65;;;4.50;99.90;;;;;;10415587;28;20049;-65
2021/03/08 21:08:34;;;;;;;22.33;10.68;;;4.60;99.80;;;;;;10415798;28;20473;-67
2021/03/08 21:13:35;;;;;;;18.90;10.05;;;4.60;99.50;;;;;;10411116;28;20053;-65
2021/03/08 21:18:36;;;;;;;36.03;16.20;;;4.60;99.60;;;;;;10419487;28;20057;-67
2021/03/08 21:23:38;;;;;;;34.28;15.88;;;4.50;99.90;;;;;;10420240;28;20127;-65
2021/03/08 21:28:39;;;;;;;51.55;23.90;;;4.60;99.90;;;;;;10420192;28;20068;-65
2021/03/08 21:33:40;;;;;;;32.08;14.98;;;4.60;99.90;;;;;;10424897;28;20049;-67
2021/03/08 21:38:41;;;;;;;22.02;9.98;;;4.50;99.90;;;;;;10421156;28;20053;-67
2021/03/08 21:43:42;;;;;;;24.80;11.27;;;4.50;99.90;;;;;;10418894;28;20048;-67
2021/03/08 21:48:44;;;;;;;23.15;10.55;;;4.50;99.90;;;;;;10418994;28;20048;-66
2021/03/08 21:53:45;;;;;;;25.55;10.90;;;4.50;99.90;;;;;;10422641;28;22594;-66
2021/03/08 21:58:46;;;;;;;22.35;10.93;;;4.40;99.90;;;;;;10412494;28;20052;-67
2021/03/08 22:03:48;;;;;;;22.25;10.98;;;4.40;99.90;;;;;;10418918;28;20064;-67
2021/03/08 22:08:49;;;;;;;28.67;12.73;;;4.40;99.90;;;;;;10423386;28;20557;-66
2021/03/08 22:13:51;;;;;;;22.33;11.85;;;4.30;99.90;;;;;;10419260;28;20126;-66
2021/03/08 22:18:52;;;;;;;24.17;12.85;;;4.40;99.90;;;;;;10421185;28;20072;-67
2021/03/08 22:23:53;;;;;;;24.98;12.90;;;4.40;99.90;;;;;;10415113;28;20060;-67
2021/03/08 22:28:54;;;;;;;21.77;11.70;;;4.40;99.90;;;;;;10417720;28;20120;-67
2021/03/08 22:33:56;;;;;;;23.45;12.07;;;4.30;99.90;;;;;;10418625;28;20386;-67
2021/03/08 22:38:57;;;;;;;23.60;11.73;;;4.40;99.90;;;;;;10419920;28;20434;-67
2021/03/08 22:43:58;;;;;;;26.90;11.90;;;4.40;99.90;;;;;;10419273;28;20086;-68
2021/03/08 22:49:04;;;;;;;23.58;11.38;;;4.30;99.90;;;;;;10421397;28;20060;-68
2021/03/08 22:54:07;;;;;;;21.25;11.25;;;4.30;99.90;;;;;;10417335;28;20154;-67
2021/03/08 22:59:08;;;;;;;26.20;11.93;;;4.40;99.90;;;;;;10391327;28;20156;-67
2021/03/08 23:04:09;;;;;;;26.20;10.73;;;4.30;99.90;;;;;;10411327;28;20495;-67
2021/03/08 23:09:11;;;;;;;23.33;11.73;;;4.30;99.90;;;;;;10416377;28;20087;-65
2021/03/08 23:14:12;;;;;;;19.52;10.95;;;4.30;99.90;;;;;;10423951;28;20060;-67
2021/03/08 23:19:22;;;;;;;29.02;12.48;;;4.30;99.90;;;;;;10427643;28;20059;-67
2021/03/08 23:24:23;;;;;;;22.10;11.27;;;4.30;99.90;;;;;;10423140;28;20103;-66
2021/03/08 23:29:25;;;;;;;23.02;10.65;;;4.20;99.90;;;;;;10420775;28;20053;-67
2021/03/08 23:34:26;;;;;;;22.80;10.73;;;4.20;99.90;;;;;;10419292;28;20111;-65
2021/03/08 23:39:27;;;;;;;24.23;11.68;;;4.20;99.90;;;;;;10424172;28;20056;-66
2021/03/08 23:44:29;;;;;;;28.15;12.80;;;4.20;99.90;;;;;;10428057;28;20045;-66
2021/03/08 23:49:44;;;;;;;31.95;13.75;;;4.20;99.90;;;;;;10427487;28;20159;-66
2021/03/08 23:54:45;;;;;;;32.17;14.00;;;4.20;99.90;;;;;;10421010;28;20672;-66
2021/03/08 23:59:46;;;;;;;25.60;11.50;;;4.20;99.90;;;;;;10425024;28;20388;-66
